sensor_id;sensor_type;location;lat;lon;timestamp;P1;durP1;ratioP1;P2;durP2;ratioP2
41966;SDS011;27656;53.068;8.818;2023-08-12T00:01:16;8.83;;;5.93;;
41966;SDS011;27656;53.068;8.818;2023-08-12T00:03:43;10.07;;;5.40;;
41966;SDS011;27656;53.068;8.818;2023-08-12T00:06:09;8.50;;;5.90;;
41966;SDS011;27656;53.068;8.818;2023-08-12T00:08:37;6.87;;;5.60;;
41966;SDS011;27656;53.068;8.818;2023-08-12T00:11:03;10.70;;;5.03;;
41966;SDS011;27656;53.068;8.818;2023-08-12T00:13:30;8.57;;;5.00;;
41966;SDS011;27656;53.068;8.818;2023-08-12T00:16:07;11.43;;;4.93;;
41966;SDS011;27656;53.068;8.818;2023-08-12T00:18:33;9.87;;;5.00;;
41966;SDS011;27656;53.068;8.818;2023-08-12T00:21:05;10.07;;;5.40;;
41966;SDS011;27656;53.068;8.818;2023-08-12T00:23:37;11.80;;;5.93;;
41966;SDS011;27656;53.068;8.818;2023-08-12T00:26:04;12.97;;;6.10;;
41966;SDS011;27656;53.068;8.818;2023-08-12T00:28:31;17.40;;;7.57;;
41966;SDS011;27656;53.068;8.818;2023-08-12T00:30:57;17.73;;;7.60;;
41966;SDS011;27656;53.068;8.818;2023-08-12T00:33:24;17.47;;;6.80;;
41966;SDS011;27656;53.068;8.818;2023-08-12T00:35:50;10.23;;;6.00;;
41966;SDS011;27656;53.068;8.818;2023-08-12T00:38:17;11.40;;;6.10;;
41966;SDS011;27656;53.068;8.818;2023-08-12T00:40:43;11.53;;;6.17;;
41966;SDS011;27656;53.068;8.818;2023-08-12T00:43:10;13.50;;;6.47;;
41966;SDS011;27656;53.068;8.818;2023-08-12T00:45:38;11.53;;;6.57;;
41966;SDS011;27656;53.068;8.818;2023-08-12T00:48:05;10.30;;;6.00;;
41966;SDS011;27656;53.068;8.818;2023-08-12T00:50:33;16.73;;;6.90;;
41966;SDS011;27656;53.068;8.818;2023-08-12T00:53:03;15.30;;;6.53;;
41966;SDS011;27656;53.068;8.818;2023-08-12T00:55:33;15.73;;;6.67;;
41966;SDS011;27656;53.068;8.818;2023-08-12T00:58:00;16.47;;;6.37;;
41966;SDS011;27656;53.068;8.818;2023-08-12T01:00:28;11.90;;;6.30;;
41966;SDS011;27656;53.068;8.818;2023-08-12T01:02:55;10.73;;;5.63;;
41966;SDS011;27656;53.068;8.818;2023-08-12T01:05:23;14.57;;;5.63;;
41966;SDS011;27656;53.068;8.818;2023-08-12T01:07:49;15.90;;;5.20;;
41966;SDS011;27656;53.068;8.818;2023-08-12T01:10:16;13.93;;;6.00;;
41966;SDS011;27656;53.068;8.818;2023-08-12T01:15:25;9.50;;;5.77;;
41966;SDS011;27656;53.068;8.818;2023-08-12T01:17:53;13.70;;;5.93;;
41966;SDS011;27656;53.068;8.818;2023-08-12T01:20:22;15.27;;;5.80;;
41966;SDS011;27656;53.068;8.818;2023-08-12T01:22:55;10.63;;;5.27;;
41966;SDS011;27656;53.068;8.818;2023-08-12T01:25:24;10.30;;;5.43;;
41966;SDS011;27656;53.068;8.818;2023-08-12T01:27:51;12.67;;;6.17;;
41966;SDS011;27656;53.068;8.818;2023-08-12T01:30:18;8.63;;;4.70;;
41966;SDS011;27656;53.068;8.818;2023-08-12T01:33:02;14.10;;;6.13;;
41966;SDS011;27656;53.068;8.818;2023-08-12T01:35:38;13.27;;;5.20;;
41966;SDS011;27656;53.068;8.818;2023-08-12T01:38:08;13.00;;;6.10;;
41966;SDS011;27656;53.068;8.818;2023-08-12T01:40:35;12.57;;;6.03;;
41966;SDS011;27656;53.068;8.818;2023-08-12T01:43:05;11.80;;;5.80;;
41966;SDS011;27656;53.068;8.818;2023-08-12T01:45:33;15.40;;;6.07;;
41966;SDS011;27656;53.068;8.818;2023-08-12T01:48:01;12.00;;;5.93;;
41966;SDS011;27656;53.068;8.818;2023-08-12T01:50:29;10.20;;;5.93;;
41966;SDS011;27656;53.068;8.818;2023-08-12T01:52:55;10.03;;;6.17;;
41966;SDS011;27656;53.068;8.818;2023-08-12T01:55:22;12.77;;;5.83;;
41966;SDS011;27656;53.068;8.818;2023-08-12T01:57:48;15.40;;;7.07;;
41966;SDS011;27656;53.068;8.818;2023-08-12T02:00:15;15.97;;;7.87;;
41966;SDS011;27656;53.068;8.818;2023-08-12T02:02:42;19.57;;;9.03;;
41966;SDS011;27656;53.068;8.818;2023-08-12T02:05:13;17.70;;;9.17;;
41966;SDS011;27656;53.068;8.818;2023-08-12T02:07:40;17.53;;;10.07;;
41966;SDS011;27656;53.068;8.818;2023-08-12T02:10:07;17.17;;;9.27;;
41966;SDS011;27656;53.068;8.818;2023-08-12T02:12:33;19.73;;;9.77;;
41966;SDS011;27656;53.068;8.818;2023-08-12T02:15:00;18.77;;;9.17;;
41966;SDS011;27656;53.068;8.818;2023-08-12T02:17:26;16.40;;;10.30;;
41966;SDS011;27656;53.068;8.818;2023-08-12T02:19:53;17.07;;;10.53;;
41966;SDS011;27656;53.068;8.818;2023-08-12T02:22:20;23.03;;;10.80;;
41966;SDS011;27656;53.068;8.818;2023-08-12T02:24:46;20.80;;;10.17;;
41966;SDS011;27656;53.068;8.818;2023-08-12T02:27:13;17.73;;;10.70;;
41966;SDS011;27656;53.068;8.818;2023-08-12T02:29:40;23.67;;;12.03;;
41966;SDS011;27656;53.068;8.818;2023-08-12T02:32:06;17.27;;;11.20;;
41966;SDS011;27656;53.068;8.818;2023-08-12T02:34:33;21.67;;;11.20;;
41966;SDS011;27656;53.068;8.818;2023-08-12T02:36:59;21.23;;;11.53;;
41966;SDS011;27656;53.068;8.818;2023-08-12T02:39:26;20.33;;;9.73;;
41966;SDS011;27656;53.068;8.818;2023-08-12T02:41:52;23.50;;;11.20;;
41966;SDS011;27656;53.068;8.818;2023-08-12T02:44:20;24.43;;;10.67;;
41966;SDS011;27656;53.068;8.818;2023-08-12T02:46:46;20.30;;;10.60;;
41966;SDS011;27656;53.068;8.818;2023-08-12T02:49:12;24.33;;;11.20;;
41966;SDS011;27656;53.068;8.818;2023-08-12T02:51:39;21.10;;;9.93;;
41966;SDS011;27656;53.068;8.818;2023-08-12T02:54:06;18.87;;;11.73;;
41966;SDS011;27656;53.068;8.818;2023-08-12T02:56:34;24.43;;;11.00;;
41966;SDS011;27656;53.068;8.818;2023-08-12T02:59:00;22.87;;;11.23;;
41966;SDS011;27656;53.068;8.818;2023-08-12T03:01:28;19.07;;;10.40;;
41966;SDS011;27656;53.068;8.818;2023-08-12T03:03:55;22.10;;;10.77;;
41966;SDS011;27656;53.068;8.818;2023-08-12T03:06:21;20.13;;;10.73;;
41966;SDS011;27656;53.068;8.818;2023-08-12T03:08:48;22.50;;;10.23;;
41966;SDS011;27656;53.068;8.818;2023-08-12T03:11:15;17.27;;;10.27;;
41966;SDS011;27656;53.068;8.818;2023-08-12T03:13:42;20.13;;;10.93;;
41966;SDS011;27656;53.068;8.818;2023-08-12T03:16:12;18.27;;;11.00;;
41966;SDS011;27656;53.068;8.818;2023-08-12T03:18:42;17.40;;;10.40;;
41966;SDS011;27656;53.068;8.818;2023-08-12T03:21:09;19.97;;;11.10;;
41966;SDS011;27656;53.068;8.818;2023-08-12T03:23:36;17.13;;;9.57;;
41966;SDS011;27656;53.068;8.818;2023-08-12T03:26:04;24.23;;;10.10;;
41966;SDS011;27656;53.068;8.818;2023-08-12T03:28:31;15.67;;;10.53;;
41966;SDS011;27656;53.068;8.818;2023-08-12T03:30:59;18.00;;;10.57;;
41966;SDS011;27656;53.068;8.818;2023-08-12T03:33:26;20.70;;;10.37;;
41966;SDS011;27656;53.068;8.818;2023-08-12T03:35:53;19.07;;;10.27;;
41966;SDS011;27656;53.068;8.818;2023-08-12T03:38:20;17.47;;;11.20;;
41966;SDS011;27656;53.068;8.818;2023-08-12T03:40:46;20.83;;;12.10;;
41966;SDS011;27656;53.068;8.818;2023-08-12T03:43:12;22.87;;;11.30;;
41966;SDS011;27656;53.068;8.818;2023-08-12T03:45:40;21.60;;;11.70;;
41966;SDS011;27656;53.068;8.818;2023-08-12T03:48:10;24.93;;;11.80;;
41966;SDS011;27656;53.068;8.818;2023-08-12T03:50:37;24.07;;;11.97;;
41966;SDS011;27656;53.068;8.818;2023-08-12T03:53:05;16.10;;;10.70;;
41966;SDS011;27656;53.068;8.818;2023-08-12T03:55:32;17.20;;;11.10;;
41966;SDS011;27656;53.068;8.818;2023-08-12T03:57:59;20.63;;;12.23;;
41966;SDS011;27656;53.068;8.818;2023-08-12T04:00:26;17.50;;;11.37;;
41966;SDS011;27656;53.068;8.818;2023-08-12T04:02:53;18.43;;;13.00;;
41966;SDS011;27656;53.068;8.818;2023-08-12T04:05:20;21.53;;;12.03;;
41966;SDS011;27656;53.068;8.818;2023-08-12T04:07:48;24.97;;;13.40;;
41966;SDS011;27656;53.068;8.818;2023-08-12T04:10:15;19.57;;;13.80;;
41966;SDS011;27656;53.068;8.818;2023-08-12T04:12:41;20.77;;;13.50;;
41966;SDS011;27656;53.068;8.818;2023-08-12T04:15:08;24.90;;;14.47;;
41966;SDS011;27656;53.068;8.818;2023-08-12T04:17:35;29.63;;;14.93;;
41966;SDS011;27656;53.068;8.818;2023-08-12T04:20:02;21.63;;;13.80;;
41966;SDS011;27656;53.068;8.818;2023-08-12T04:22:33;21.23;;;13.47;;
41966;SDS011;27656;53.068;8.818;2023-08-12T04:25:00;27.20;;;15.40;;
41966;SDS011;27656;53.068;8.818;2023-08-12T04:27:29;22.67;;;15.87;;
41966;SDS011;27656;53.068;8.818;2023-08-12T04:29:56;30.40;;;16.10;;
41966;SDS011;27656;53.068;8.818;2023-08-12T04:32:23;22.93;;;14.93;;
41966;SDS011;27656;53.068;8.818;2023-08-12T04:34:49;23.77;;;14.10;;
41966;SDS011;27656;53.068;8.818;2023-08-12T04:37:18;24.47;;;15.37;;
41966;SDS011;27656;53.068;8.818;2023-08-12T04:39:44;24.77;;;14.67;;
41966;SDS011;27656;53.068;8.818;2023-08-12T04:42:11;25.20;;;15.20;;
41966;SDS011;27656;53.068;8.818;2023-08-12T04:44:38;25.30;;;17.07;;
41966;SDS011;27656;53.068;8.818;2023-08-12T04:47:04;30.67;;;18.00;;
41966;SDS011;27656;53.068;8.818;2023-08-12T04:49:31;25.93;;;16.97;;
41966;SDS011;27656;53.068;8.818;2023-08-12T04:51:58;27.40;;;17.47;;
41966;SDS011;27656;53.068;8.818;2023-08-12T04:54:25;30.50;;;18.00;;
41966;SDS011;27656;53.068;8.818;2023-08-12T04:56:51;31.03;;;17.80;;
41966;SDS011;27656;53.068;8.818;2023-08-12T04:59:18;31.47;;;19.23;;
41966;SDS011;27656;53.068;8.818;2023-08-12T05:01:44;33.33;;;19.20;;
41966;SDS011;27656;53.068;8.818;2023-08-12T05:04:32;27.10;;;19.87;;
41966;SDS011;27656;53.068;8.818;2023-08-12T05:07:00;32.37;;;19.40;;
41966;SDS011;27656;53.068;8.818;2023-08-12T05:09:27;30.03;;;18.97;;
41966;SDS011;27656;53.068;8.818;2023-08-12T05:11:54;34.07;;;19.60;;
41966;SDS011;27656;53.068;8.818;2023-08-12T05:14:22;28.83;;;19.70;;
41966;SDS011;27656;53.068;8.818;2023-08-12T05:16:48;28.83;;;19.40;;
41966;SDS011;27656;53.068;8.818;2023-08-12T05:19:15;29.23;;;18.60;;
41966;SDS011;27656;53.068;8.818;2023-08-12T05:21:42;33.77;;;20.90;;
41966;SDS011;27656;53.068;8.818;2023-08-12T05:24:08;30.30;;;21.63;;
41966;SDS011;27656;53.068;8.818;2023-08-12T05:26:37;35.57;;;23.20;;
41966;SDS011;27656;53.068;8.818;2023-08-12T05:29:04;31.57;;;21.37;;
41966;SDS011;27656;53.068;8.818;2023-08-12T05:31:31;30.77;;;20.67;;
41966;SDS011;27656;53.068;8.818;2023-08-12T05:33:58;30.03;;;21.53;;
41966;SDS011;27656;53.068;8.818;2023-08-12T05:36:24;27.43;;;20.20;;
41966;SDS011;27656;53.068;8.818;2023-08-12T05:38:51;29.83;;;21.03;;
41966;SDS011;27656;53.068;8.818;2023-08-12T05:41:18;30.43;;;21.70;;
41966;SDS011;27656;53.068;8.818;2023-08-12T05:43:45;31.87;;;20.97;;
41966;SDS011;27656;53.068;8.818;2023-08-12T05:46:13;29.93;;;20.77;;
41966;SDS011;27656;53.068;8.818;2023-08-12T05:48:40;33.60;;;21.17;;
41966;SDS011;27656;53.068;8.818;2023-08-12T05:51:06;28.97;;;20.63;;
41966;SDS011;27656;53.068;8.818;2023-08-12T05:53:33;28.67;;;20.03;;
41966;SDS011;27656;53.068;8.818;2023-08-12T05:56:00;28.13;;;19.37;;
41966;SDS011;27656;53.068;8.818;2023-08-12T05:58:27;27.27;;;18.67;;
41966;SDS011;27656;53.068;8.818;2023-08-12T06:00:53;26.33;;;16.90;;
41966;SDS011;27656;53.068;8.818;2023-08-12T06:03:21;23.00;;;16.37;;
41966;SDS011;27656;53.068;8.818;2023-08-12T06:05:47;24.27;;;18.07;;
41966;SDS011;27656;53.068;8.818;2023-08-12T06:08:14;29.30;;;18.57;;
41966;SDS011;27656;53.068;8.818;2023-08-12T06:10:41;25.03;;;17.37;;
41966;SDS011;27656;53.068;8.818;2023-08-12T06:13:07;25.47;;;18.40;;
41966;SDS011;27656;53.068;8.818;2023-08-12T06:15:34;22.87;;;17.40;;
41966;SDS011;27656;53.068;8.818;2023-08-12T06:18:01;25.23;;;18.27;;
41966;SDS011;27656;53.068;8.818;2023-08-12T06:20:28;25.60;;;17.80;;
41966;SDS011;27656;53.068;8.818;2023-08-12T06:22:55;26.23;;;17.57;;
41966;SDS011;27656;53.068;8.818;2023-08-12T06:25:23;26.47;;;17.97;;
41966;SDS011;27656;53.068;8.818;2023-08-12T06:27:50;27.47;;;19.40;;
41966;SDS011;27656;53.068;8.818;2023-08-12T06:30:17;22.70;;;15.83;;
41966;SDS011;27656;53.068;8.818;2023-08-12T06:32:44;24.63;;;15.10;;
41966;SDS011;27656;53.068;8.818;2023-08-12T06:35:11;19.90;;;15.80;;
41966;SDS011;27656;53.068;8.818;2023-08-12T06:37:37;21.60;;;15.97;;
41966;SDS011;27656;53.068;8.818;2023-08-12T06:40:04;22.60;;;14.57;;
41966;SDS011;27656;53.068;8.818;2023-08-12T06:42:31;20.40;;;13.93;;
41966;SDS011;27656;53.068;8.818;2023-08-12T06:44:58;18.43;;;12.83;;
41966;SDS011;27656;53.068;8.818;2023-08-12T06:47:27;23.40;;;14.93;;
41966;SDS011;27656;53.068;8.818;2023-08-12T06:49:56;20.97;;;13.23;;
41966;SDS011;27656;53.068;8.818;2023-08-12T06:52:22;16.53;;;12.13;;
41966;SDS011;27656;53.068;8.818;2023-08-12T06:54:49;18.90;;;13.60;;
41966;SDS011;27656;53.068;8.818;2023-08-12T06:57:16;18.93;;;12.97;;
41966;SDS011;27656;53.068;8.818;2023-08-12T06:59:42;19.47;;;13.70;;
41966;SDS011;27656;53.068;8.818;2023-08-12T07:02:09;16.90;;;12.90;;
41966;SDS011;27656;53.068;8.818;2023-08-12T07:04:36;17.63;;;11.90;;
41966;SDS011;27656;53.068;8.818;2023-08-12T07:07:03;19.07;;;14.40;;
41966;SDS011;27656;53.068;8.818;2023-08-12T07:09:30;18.73;;;14.67;;
41966;SDS011;27656;53.068;8.818;2023-08-12T07:11:57;20.67;;;15.83;;
41966;SDS011;27656;53.068;8.818;2023-08-12T07:14:23;20.43;;;15.73;;
41966;SDS011;27656;53.068;8.818;2023-08-12T07:16:49;22.87;;;15.27;;
41966;SDS011;27656;53.068;8.818;2023-08-12T07:19:16;26.23;;;16.20;;
41966;SDS011;27656;53.068;8.818;2023-08-12T07:21:42;23.63;;;16.80;;
41966;SDS011;27656;53.068;8.818;2023-08-12T07:24:09;22.37;;;16.20;;
41966;SDS011;27656;53.068;8.818;2023-08-12T07:26:35;23.60;;;16.13;;
41966;SDS011;27656;53.068;8.818;2023-08-12T07:29:02;23.37;;;16.63;;
41966;SDS011;27656;53.068;8.818;2023-08-12T07:31:29;23.83;;;14.97;;
41966;SDS011;27656;53.068;8.818;2023-08-12T07:33:56;25.63;;;16.20;;
41966;SDS011;27656;53.068;8.818;2023-08-12T07:36:22;26.17;;;16.33;;
41966;SDS011;27656;53.068;8.818;2023-08-12T07:38:49;26.50;;;16.33;;
41966;SDS011;27656;53.068;8.818;2023-08-12T07:41:15;20.63;;;16.10;;
41966;SDS011;27656;53.068;8.818;2023-08-12T07:43:42;29.67;;;17.60;;
41966;SDS011;27656;53.068;8.818;2023-08-12T07:46:08;25.97;;;17.73;;
41966;SDS011;27656;53.068;8.818;2023-08-12T07:48:35;22.20;;;16.43;;
41966;SDS011;27656;53.068;8.818;2023-08-12T07:51:02;24.63;;;16.03;;
41966;SDS011;27656;53.068;8.818;2023-08-12T07:53:29;25.57;;;16.83;;
41966;SDS011;27656;53.068;8.818;2023-08-12T07:55:56;27.00;;;17.47;;
41966;SDS011;27656;53.068;8.818;2023-08-12T07:58:22;20.67;;;14.87;;
41966;SDS011;27656;53.068;8.818;2023-08-12T08:00:51;23.60;;;16.40;;
41966;SDS011;27656;53.068;8.818;2023-08-12T08:03:20;22.97;;;14.07;;
41966;SDS011;27656;53.068;8.818;2023-08-12T08:05:48;21.77;;;15.30;;
41966;SDS011;27656;53.068;8.818;2023-08-12T08:08:15;22.37;;;14.60;;
41966;SDS011;27656;53.068;8.818;2023-08-12T08:10:41;19.93;;;14.00;;
41966;SDS011;27656;53.068;8.818;2023-08-12T08:13:08;23.83;;;15.23;;
41966;SDS011;27656;53.068;8.818;2023-08-12T08:15:35;21.97;;;13.80;;
41966;SDS011;27656;53.068;8.818;2023-08-12T08:18:01;19.97;;;14.53;;
41966;SDS011;27656;53.068;8.818;2023-08-12T08:20:30;23.07;;;14.23;;
41966;SDS011;27656;53.068;8.818;2023-08-12T08:22:57;25.53;;;13.87;;
41966;SDS011;27656;53.068;8.818;2023-08-12T08:25:25;20.80;;;13.43;;
41966;SDS011;27656;53.068;8.818;2023-08-12T08:27:51;19.27;;;13.67;;
41966;SDS011;27656;53.068;8.818;2023-08-12T08:30:19;17.83;;;12.90;;
41966;SDS011;27656;53.068;8.818;2023-08-12T08:32:45;23.00;;;14.73;;
41966;SDS011;27656;53.068;8.818;2023-08-12T08:35:13;17.97;;;12.30;;
41966;SDS011;27656;53.068;8.818;2023-08-12T08:37:41;20.90;;;13.80;;
41966;SDS011;27656;53.068;8.818;2023-08-12T08:40:08;21.23;;;13.50;;
41966;SDS011;27656;53.068;8.818;2023-08-12T08:42:38;20.90;;;14.23;;
41966;SDS011;27656;53.068;8.818;2023-08-12T08:45:07;21.97;;;14.00;;
41966;SDS011;27656;53.068;8.818;2023-08-12T08:47:40;19.83;;;13.63;;
41966;SDS011;27656;53.068;8.818;2023-08-12T08:50:09;20.80;;;13.90;;
41966;SDS011;27656;53.068;8.818;2023-08-12T08:52:37;23.43;;;15.53;;
41966;SDS011;27656;53.068;8.818;2023-08-12T08:55:04;19.03;;;13.97;;
41966;SDS011;27656;53.068;8.818;2023-08-12T08:57:33;20.20;;;14.97;;
41966;SDS011;27656;53.068;8.818;2023-08-12T09:00:03;19.30;;;14.30;;
41966;SDS011;27656;53.068;8.818;2023-08-12T09:02:51;17.23;;;13.27;;
41966;SDS011;27656;53.068;8.818;2023-08-12T09:05:19;24.70;;;14.70;;
41966;SDS011;27656;53.068;8.818;2023-08-12T09:07:47;21.03;;;15.10;;
41966;SDS011;27656;53.068;8.818;2023-08-12T09:10:15;19.03;;;14.93;;
41966;SDS011;27656;53.068;8.818;2023-08-12T09:12:47;24.30;;;15.93;;
41966;SDS011;27656;53.068;8.818;2023-08-12T09:15:15;22.57;;;16.70;;
41966;SDS011;27656;53.068;8.818;2023-08-12T09:17:42;24.60;;;17.50;;
41966;SDS011;27656;53.068;8.818;2023-08-12T09:20:09;22.63;;;14.93;;
41966;SDS011;27656;53.068;8.818;2023-08-12T09:22:42;26.73;;;17.70;;
41966;SDS011;27656;53.068;8.818;2023-08-12T09:25:09;23.73;;;17.27;;
41966;SDS011;27656;53.068;8.818;2023-08-12T09:27:36;26.07;;;17.63;;
41966;SDS011;27656;53.068;8.818;2023-08-12T09:30:04;20.77;;;16.70;;
41966;SDS011;27656;53.068;8.818;2023-08-12T09:32:32;24.50;;;17.53;;
41966;SDS011;27656;53.068;8.818;2023-08-12T09:35:00;23.73;;;16.50;;
41966;SDS011;27656;53.068;8.818;2023-08-12T09:37:29;24.60;;;18.53;;
41966;SDS011;27656;53.068;8.818;2023-08-12T09:39:55;25.97;;;18.40;;
41966;SDS011;27656;53.068;8.818;2023-08-12T09:42:22;24.70;;;17.93;;
41966;SDS011;27656;53.068;8.818;2023-08-12T09:44:49;24.67;;;18.80;;
41966;SDS011;27656;53.068;8.818;2023-08-12T09:47:15;26.13;;;19.87;;
41966;SDS011;27656;53.068;8.818;2023-08-12T09:49:42;30.67;;;19.67;;
41966;SDS011;27656;53.068;8.818;2023-08-12T09:52:09;33.23;;;20.73;;
41966;SDS011;27656;53.068;8.818;2023-08-12T09:54:36;27.13;;;20.30;;
41966;SDS011;27656;53.068;8.818;2023-08-12T09:57:04;26.77;;;21.17;;
41966;SDS011;27656;53.068;8.818;2023-08-12T09:59:35;30.70;;;22.40;;
41966;SDS011;27656;53.068;8.818;2023-08-12T10:02:02;35.87;;;24.00;;
41966;SDS011;27656;53.068;8.818;2023-08-12T10:04:37;36.17;;;24.77;;
41966;SDS011;27656;53.068;8.818;2023-08-12T10:07:12;28.27;;;22.73;;
41966;SDS011;27656;53.068;8.818;2023-08-12T10:09:42;26.23;;;22.27;;
41966;SDS011;27656;53.068;8.818;2023-08-12T10:12:09;38.37;;;24.87;;
41966;SDS011;27656;53.068;8.818;2023-08-12T10:14:36;32.00;;;22.03;;
41966;SDS011;27656;53.068;8.818;2023-08-12T10:17:05;32.90;;;24.47;;
41966;SDS011;27656;53.068;8.818;2023-08-12T10:19:35;33.43;;;24.07;;
41966;SDS011;27656;53.068;8.818;2023-08-12T10:22:03;32.87;;;23.87;;
41966;SDS011;27656;53.068;8.818;2023-08-12T10:24:30;24.63;;;19.90;;
41966;SDS011;27656;53.068;8.818;2023-08-12T10:26:59;31.67;;;22.67;;
41966;SDS011;27656;53.068;8.818;2023-08-12T10:29:27;29.43;;;22.17;;
41966;SDS011;27656;53.068;8.818;2023-08-12T10:31:57;24.57;;;19.73;;
41966;SDS011;27656;53.068;8.818;2023-08-12T10:34:24;28.70;;;20.03;;
41966;SDS011;27656;53.068;8.818;2023-08-12T10:36:55;22.87;;;19.03;;
41966;SDS011;27656;53.068;8.818;2023-08-12T10:39:29;25.87;;;19.70;;
41966;SDS011;27656;53.068;8.818;2023-08-12T10:41:58;24.27;;;19.57;;
41966;SDS011;27656;53.068;8.818;2023-08-12T10:47:17;26.93;;;19.77;;
41966;SDS011;27656;53.068;8.818;2023-08-12T10:49:47;24.83;;;19.43;;
41966;SDS011;27656;53.068;8.818;2023-08-12T10:52:28;26.13;;;21.47;;
41966;SDS011;27656;53.068;8.818;2023-08-12T10:57:53;24.57;;;18.57;;
41966;SDS011;27656;53.068;8.818;2023-08-12T11:00:26;35.63;;;21.50;;
41966;SDS011;27656;53.068;8.818;2023-08-12T11:02:54;24.03;;;19.03;;
41966;SDS011;27656;53.068;8.818;2023-08-12T11:05:23;26.13;;;19.13;;
41966;SDS011;27656;53.068;8.818;2023-08-12T11:07:57;25.13;;;18.17;;
41966;SDS011;27656;53.068;8.818;2023-08-12T11:10:28;23.77;;;17.33;;
41966;SDS011;27656;53.068;8.818;2023-08-12T11:13:00;19.73;;;15.17;;
41966;SDS011;27656;53.068;8.818;2023-08-12T11:15:30;19.87;;;15.73;;
41966;SDS011;27656;53.068;8.818;2023-08-12T11:18:12;24.80;;;17.23;;
41966;SDS011;27656;53.068;8.818;2023-08-12T11:20:44;18.10;;;15.77;;
41966;SDS011;27656;53.068;8.818;2023-08-12T11:23:13;19.03;;;16.53;;
41966;SDS011;27656;53.068;8.818;2023-08-12T11:25:40;23.57;;;17.77;;
41966;SDS011;27656;53.068;8.818;2023-08-12T11:28:09;20.93;;;17.90;;
41966;SDS011;27656;53.068;8.818;2023-08-12T11:30:35;23.07;;;17.70;;
41966;SDS011;27656;53.068;8.818;2023-08-12T11:33:02;22.00;;;16.67;;
41966;SDS011;27656;53.068;8.818;2023-08-12T11:35:30;18.97;;;15.20;;
41966;SDS011;27656;53.068;8.818;2023-08-12T11:37:57;20.80;;;17.40;;
41966;SDS011;27656;53.068;8.818;2023-08-12T11:40:25;20.37;;;16.83;;
41966;SDS011;27656;53.068;8.818;2023-08-12T11:42:53;17.47;;;15.30;;
41966;SDS011;27656;53.068;8.818;2023-08-12T11:45:22;20.63;;;16.97;;
41966;SDS011;27656;53.068;8.818;2023-08-12T11:47:51;17.70;;;13.90;;
41966;SDS011;27656;53.068;8.818;2023-08-12T11:50:23;14.40;;;11.37;;
41966;SDS011;27656;53.068;8.818;2023-08-12T11:52:52;14.33;;;11.57;;
41966;SDS011;27656;53.068;8.818;2023-08-12T11:55:19;12.47;;;10.43;;
41966;SDS011;27656;53.068;8.818;2023-08-12T11:57:47;12.80;;;10.93;;
41966;SDS011;27656;53.068;8.818;2023-08-12T12:00:13;15.57;;;10.67;;
41966;SDS011;27656;53.068;8.818;2023-08-12T12:02:48;12.63;;;10.85;;
41966;SDS011;27656;53.068;8.818;2023-08-12T12:05:17;12.20;;;10.60;;
41966;SDS011;27656;53.068;8.818;2023-08-12T12:07:49;13.80;;;11.93;;
41966;SDS011;27656;53.068;8.818;2023-08-12T12:10:30;16.77;;;12.17;;
41966;SDS011;27656;53.068;8.818;2023-08-12T12:13:01;17.07;;;12.73;;
41966;SDS011;27656;53.068;8.818;2023-08-12T12:15:31;14.37;;;12.40;;
41966;SDS011;27656;53.068;8.818;2023-08-12T12:17:58;17.33;;;12.63;;
41966;SDS011;27656;53.068;8.818;2023-08-12T12:20:25;14.83;;;13.13;;
41966;SDS011;27656;53.068;8.818;2023-08-12T12:22:53;16.00;;;13.27;;
41966;SDS011;27656;53.068;8.818;2023-08-12T12:25:21;13.93;;;12.13;;
41966;SDS011;27656;53.068;8.818;2023-08-12T12:27:48;13.20;;;11.00;;
41966;SDS011;27656;53.068;8.818;2023-08-12T12:30:15;15.80;;;10.53;;
41966;SDS011;27656;53.068;8.818;2023-08-12T12:32:43;12.33;;;10.63;;
41966;SDS011;27656;53.068;8.818;2023-08-12T12:35:10;13.73;;;11.70;;
41966;SDS011;27656;53.068;8.818;2023-08-12T12:37:37;12.27;;;10.17;;
41966;SDS011;27656;53.068;8.818;2023-08-12T12:40:04;16.55;;;9.90;;
41966;SDS011;27656;53.068;8.818;2023-08-12T12:42:31;12.00;;;9.55;;
41966;SDS011;27656;53.068;8.818;2023-08-12T12:44:58;14.03;;;11.60;;
41966;SDS011;27656;53.068;8.818;2023-08-12T12:47:25;10.68;;;9.23;;
41966;SDS011;27656;53.068;8.818;2023-08-12T12:49:51;10.15;;;8.10;;
41966;SDS011;27656;53.068;8.818;2023-08-12T12:52:18;10.02;;;8.85;;
41966;SDS011;27656;53.068;8.818;2023-08-12T12:54:44;12.57;;;9.65;;
41966;SDS011;27656;53.068;8.818;2023-08-12T12:57:13;10.90;;;9.02;;
41966;SDS011;27656;53.068;8.818;2023-08-12T12:59:39;12.27;;;9.20;;
41966;SDS011;27656;53.068;8.818;2023-08-12T13:02:06;11.43;;;9.43;;
41966;SDS011;27656;53.068;8.818;2023-08-12T13:04:32;10.68;;;8.77;;
41966;SDS011;27656;53.068;8.818;2023-08-12T13:07:00;11.50;;;10.40;;
41966;SDS011;27656;53.068;8.818;2023-08-12T13:09:27;9.10;;;8.18;;
41966;SDS011;27656;53.068;8.818;2023-08-12T13:11:53;11.18;;;7.97;;
41966;SDS011;27656;53.068;8.818;2023-08-12T13:14:23;10.68;;;8.05;;
41966;SDS011;27656;53.068;8.818;2023-08-12T13:16:50;9.15;;;7.60;;
41966;SDS011;27656;53.068;8.818;2023-08-12T13:19:17;7.82;;;7.00;;
41966;SDS011;27656;53.068;8.818;2023-08-12T13:21:43;11.40;;;7.50;;
41966;SDS011;27656;53.068;8.818;2023-08-12T13:24:09;7.67;;;6.60;;
41966;SDS011;27656;53.068;8.818;2023-08-12T13:26:36;7.80;;;6.30;;
41966;SDS011;27656;53.068;8.818;2023-08-12T13:29:03;6.90;;;6.03;;
41966;SDS011;27656;53.068;8.818;2023-08-12T13:31:30;5.90;;;5.40;;
41966;SDS011;27656;53.068;8.818;2023-08-12T13:33:56;6.07;;;5.43;;
41966;SDS011;27656;53.068;8.818;2023-08-12T13:36:23;6.23;;;5.33;;
41966;SDS011;27656;53.068;8.818;2023-08-12T13:38:50;5.33;;;4.83;;
41966;SDS011;27656;53.068;8.818;2023-08-12T13:41:16;6.23;;;5.43;;
41966;SDS011;27656;53.068;8.818;2023-08-12T13:43:43;8.37;;;5.93;;
41966;SDS011;27656;53.068;8.818;2023-08-12T13:46:09;6.40;;;5.80;;
41966;SDS011;27656;53.068;8.818;2023-08-12T13:48:36;7.23;;;5.90;;
41966;SDS011;27656;53.068;8.818;2023-08-12T13:51:03;6.50;;;5.90;;
41966;SDS011;27656;53.068;8.818;2023-08-12T13:53:30;6.50;;;5.80;;
41966;SDS011;27656;53.068;8.818;2023-08-12T13:55:56;7.30;;;6.07;;
41966;SDS011;27656;53.068;8.818;2023-08-12T13:58:23;8.50;;;6.63;;
41966;SDS011;27656;53.068;8.818;2023-08-12T14:00:49;7.40;;;6.23;;
41966;SDS011;27656;53.068;8.818;2023-08-12T14:03:17;6.30;;;5.70;;
41966;SDS011;27656;53.068;8.818;2023-08-12T14:05:44;7.93;;;6.27;;
41966;SDS011;27656;53.068;8.818;2023-08-12T14:08:11;6.82;;;6.00;;
41966;SDS011;27656;53.068;8.818;2023-08-12T14:10:39;6.22;;;5.63;;
41966;SDS011;27656;53.068;8.818;2023-08-12T14:13:06;6.03;;;5.13;;
41966;SDS011;27656;53.068;8.818;2023-08-12T14:15:33;5.10;;;4.60;;
41966;SDS011;27656;53.068;8.818;2023-08-12T14:18:00;5.40;;;4.90;;
41966;SDS011;27656;53.068;8.818;2023-08-12T14:20:27;4.47;;;4.07;;
41966;SDS011;27656;53.068;8.818;2023-08-12T14:22:55;3.37;;;2.27;;
41966;SDS011;27656;53.068;8.818;2023-08-12T14:25:22;3.50;;;1.67;;
41966;SDS011;27656;53.068;8.818;2023-08-12T14:27:48;11.68;;;6.75;;
41966;SDS011;27656;53.068;8.818;2023-08-12T14:30:17;1.58;;;1.00;;
41966;SDS011;27656;53.068;8.818;2023-08-12T14:32:45;2.70;;;0.82;;
41966;SDS011;27656;53.068;8.818;2023-08-12T14:35:14;0.80;;;0.63;;
41966;SDS011;27656;53.068;8.818;2023-08-12T14:37:41;1.88;;;1.70;;